Time;durP1;ratioP1;P1;durP2;ratioP2;P2;SDS_P1;SDS_P2;PMS_P1;PMS_P2;Temp;Humidity;BMP_temperature;BMP_pressure;BME280_temperature;BME280_humidity;BME280_pressure;Samples;Min_cycle;Max_cycle;Signal;HPM_P1;HPM_P2
2023/05/24 03:16:24;;;;;;;4.55;2.30;;;16.70;82.30;;;;;;6172666;22;94094;-74
2023/05/24 03:18:50;;;;;;;3.95;2.30;;;16.70;82.10;;;;;;6244476;22;92376;-75
2023/05/24 03:21:19;;;;;;;5.07;1.80;;;16.70;82.00;;;;;;6245381;22;93267;-73
2023/05/24 03:23:45;;;;;;;3.03;1.70;;;16.60;81.70;;;;;;6244999;22;94108;-73
2023/05/24 03:26:12;;;;;;;3.22;1.70;;;16.60;81.80;;;;;;6245544;22;92740;-72
2023/05/24 03:28:39;;;;;;;3.03;1.73;;;16.60;82.10;;;;;;6246323;22;92263;-73
2023/05/24 03:31:06;;;;;;;3.95;1.60;;;16.60;81.60;;;;;;6242875;22;93747;-73
2023/05/24 03:33:32;;;;;;;3.70;1.90;;;16.60;81.60;;;;;;6242326;22;92900;-74
2023/05/24 03:35:57;;;;;;;3.80;1.70;;;16.70;81.40;;;;;;6246577;22;92048;-73
2023/05/24 03:38:23;;;;;;;5.90;1.80;;;16.70;81.70;;;;;;6246440;22;91563;-72
2023/05/24 03:40:49;;;;;;;4.80;2.58;;;16.60;81.90;;;;;;6244131;22;93772;-72
2023/05/24 03:43:15;;;;;;;4.78;2.28;;;16.60;81.80;;;;;;6245277;22;92426;-72
2023/05/24 03:45:41;;;;;;;4.03;2.17;;;16.60;81.90;;;;;;6245382;22;93536;-72
2023/05/24 03:48:07;;;;;;;3.95;2.08;;;16.60;82.10;;;;;;6245476;22;92529;-72
2023/05/24 03:50:33;;;;;;;3.33;1.92;;;16.50;82.40;;;;;;6246272;22;93954;-73
2023/05/24 03:52:58;;;;;;;3.92;2.25;;;16.60;82.40;;;;;;6245719;22;94023;-73
2023/05/24 03:55:24;;;;;;;6.00;2.17;;;16.50;82.20;;;;;;6245833;22;92249;-73
2023/05/24 03:57:50;;;;;;;4.82;2.10;;;16.40;82.40;;;;;;6245101;22;92557;-73
2023/05/24 04:00:16;;;;;;;4.45;1.85;;;16.40;82.20;;;;;;6243905;22;92715;-75
2023/05/24 04:02:41;;;;;;;3.65;2.15;;;16.30;83.00;;;;;;6242616;22;92679;-74
2023/05/24 04:05:11;;;;;;;4.15;3.03;;;16.30;82.60;;;;;;6245142;22;92323;-75
2023/05/24 04:07:37;;;;;;;4.65;2.47;;;16.30;84.20;;;;;;6245270;22;92402;-75
2023/05/24 04:10:04;;;;;;;5.22;2.50;;;16.30;83.10;;;;;;6245516;22;94066;-75
2023/05/24 04:12:31;;;;;;;5.35;2.38;;;16.30;83.10;;;;;;6245517;22;95306;-75
2023/05/24 04:14:57;;;;;;;5.07;2.53;;;16.30;83.60;;;;;;6277152;22;92369;-75
2023/05/24 04:17:23;;;;;;;4.57;2.45;;;16.20;83.60;;;;;;6260179;22;92350;-74
2023/05/24 04:19:50;;;;;;;4.28;2.47;;;16.10;84.20;;;;;;6244318;22;93136;-74
2023/05/24 04:22:17;;;;;;;3.67;2.28;;;16.10;84.30;;;;;;6245696;22;93262;-74
2023/05/24 04:24:46;;;;;;;5.43;2.60;;;16.00;84.80;;;;;;6246961;22;92385;-74
2023/05/24 04:27:12;;;;;;;4.43;2.67;;;16.00;85.00;;;;;;6219837;22;91694;-74
2023/05/24 04:29:44;;;;;;;7.65;3.00;;;16.00;85.30;;;;;;6245370;22;92958;-74
2023/05/24 04:32:13;;;;;;;6.20;2.40;;;16.00;85.80;;;;;;6245351;22;92725;-75
2023/05/24 04:34:41;;;;;;;4.65;2.63;;;16.00;85.50;;;;;;6244889;22;93311;-74
2023/05/24 04:37:07;;;;;;;3.97;2.30;;;16.00;85.50;;;;;;6246525;22;92440;-74
2023/05/24 04:39:32;;;;;;;4.63;2.53;;;16.10;85.90;;;;;;6244466;22;93327;-71
2023/05/24 04:41:59;;;;;;;6.88;2.75;;;16.10;86.50;;;;;;6244399;22;93209;-72
2023/05/24 04:44:26;;;;;;;4.80;3.05;;;16.20;86.40;;;;;;6242596;22;92331;-75
2023/05/24 04:46:52;;;;;;;5.50;2.65;;;16.20;86.10;;;;;;6244999;22;92201;-73
2023/05/24 04:49:18;;;;;;;5.03;2.70;;;16.30;86.50;;;;;;6243524;22;92822;-72
2023/05/24 04:51:45;;;;;;;5.90;3.03;;;16.30;86.10;;;;;;6245688;22;92894;-73
2023/05/24 04:54:10;;;;;;;6.55;2.97;;;16.30;85.90;;;;;;6245729;22;92333;-72
2023/05/24 04:56:37;;;;;;;6.10;3.05;;;16.20;87.10;;;;;;6244144;22;92445;-72
2023/05/24 04:59:04;;;;;;;4.80;2.97;;;16.00;87.20;;;;;;6243240;22;94767;-71
2023/05/24 05:01:31;;;;;;;6.15;3.53;;;15.90;88.40;;;;;;6245312;22;93647;-73
2023/05/24 05:03:57;;;;;;;6.13;2.97;;;15.90;89.40;;;;;;6242968;22;92413;-72
2023/05/24 05:06:23;;;;;;;6.70;2.97;;;16.00;90.20;;;;;;6245787;22;92708;-74
2023/05/24 05:08:50;;;;;;;5.95;2.97;;;16.10;88.40;;;;;;6245056;22;92704;-72
2023/05/24 05:11:17;;;;;;;6.15;2.88;;;16.10;88.60;;;;;;6245659;22;93146;-73
2023/05/24 05:13:43;;;;;;;7.57;2.58;;;16.00;90.50;;;;;;6247433;22;92451;-75
2023/05/24 05:16:09;;;;;;;6.25;3.72;;;16.10;88.60;;;;;;6247504;22;91633;-75
2023/05/24 05:18:34;;;;;;;6.90;3.80;;;16.10;88.90;;;;;;6247029;22;92957;-75
2023/05/24 05:21:01;;;;;;;8.38;4.70;;;16.00;89.90;;;;;;6246693;22;92971;-75
2023/05/24 05:23:28;;;;;;;6.85;3.33;;;15.90;91.60;;;;;;6247007;22;93236;-75
2023/05/24 05:25:53;;;;;;;4.93;2.70;;;16.00;92.40;;;;;;6247139;22;93855;-73
2023/05/24 05:28:20;;;;;;;4.18;2.78;;;16.70;93.30;;;;;;6246902;22;93532;-73
2023/05/24 05:30:46;;;;;;;7.55;3.67;;;17.20;89.00;;;;;;6219338;22;93118;-73
2023/05/24 05:33:11;;;;;;;10.45;3.30;;;17.40;88.70;;;;;;6246504;22;92346;-75
2023/05/24 05:35:37;;;;;;;5.22;3.33;;;17.20;85.70;;;;;;6247431;22;92642;-74
2023/05/24 05:38:03;;;;;;;9.73;3.67;;;16.80;87.70;;;;;;6245922;22;93371;-74
2023/05/24 05:40:28;;;;;;;6.25;3.33;;;16.70;88.70;;;;;;6247444;22;92754;-75
2023/05/24 05:42:54;;;;;;;6.00;3.22;;;16.60;89.00;;;;;;6247096;22;92484;-74
2023/05/24 05:45:20;;;;;;;6.45;4.38;;;16.40;90.00;;;;;;6247372;22;92227;-74
2023/05/24 05:47:45;;;;;;;6.68;4.40;;;16.30;90.00;;;;;;6246264;22;93730;-75
2023/05/24 05:50:11;;;;;;;6.45;3.92;;;16.20;90.10;;;;;;6246913;22;94095;-71
2023/05/24 05:52:37;;;;;;;8.95;4.38;;;16.10;90.70;;;;;;6247672;22;92292;-74
2023/05/24 05:55:03;;;;;;;9.02;5.38;;;15.90;91.40;;;;;;6247681;22;92328;-74
2023/05/24 05:57:28;;;;;;;9.30;4.13;;;15.80;91.80;;;;;;6246490;22;93861;-74
2023/05/24 05:59:54;;;;;;;7.88;4.28;;;15.70;92.10;;;;;;6246235;22;92691;-74
2023/05/24 06:02:22;;;;;;;7.20;3.70;;;15.70;92.20;;;;;;6247320;22;92466;-74
2023/05/24 06:04:48;;;;;;;9.68;4.13;;;15.60;92.40;;;;;;6247869;22;91523;-75
2023/05/24 06:07:14;;;;;;;8.32;4.63;;;15.50;92.80;;;;;;6246869;22;93388;-75
2023/05/24 06:09:40;;;;;;;6.80;4.05;;;15.50;92.90;;;;;;6246223;22;92758;-74
2023/05/24 06:12:06;;;;;;;8.82;4.80;;;15.40;93.00;;;;;;6246861;22;94614;-73
2023/05/24 06:14:33;;;;;;;10.63;4.90;;;15.40;93.20;;;;;;6246815;22;92372;-74
2023/05/24 06:16:59;;;;;;;7.80;4.43;;;15.40;93.60;;;;;;6246420;22;93100;-74
2023/05/24 06:19:25;;;;;;;14.82;5.53;;;15.30;93.70;;;;;;6246881;22;92619;-74
2023/05/24 06:21:51;;;;;;;10.85;5.05;;;15.30;93.90;;;;;;6247438;22;92390;-74
2023/05/24 06:24:21;;;;;;;9.75;5.38;;;15.30;94.00;;;;;;6246810;22;92638;-74
2023/05/24 06:26:47;;;;;;;8.45;4.72;;;15.20;94.20;;;;;;6219484;22;94660;-74
2023/05/24 06:29:13;;;;;;;9.63;5.07;;;15.30;94.30;;;;;;6247326;22;92396;-73
2023/05/24 06:31:40;;;;;;;9.27;5.22;;;15.20;94.10;;;;;;6247197;22;91980;-73
2023/05/24 06:34:05;;;;;;;10.35;5.38;;;15.20;94.50;;;;;;6247556;22;92421;-73
2023/05/24 06:36:41;;;;;;;8.50;4.72;;;15.30;94.40;;;;;;6245653;22;94854;-74
2023/05/24 06:39:08;;;;;;;10.55;5.47;;;15.20;94.20;;;;;;6246269;22;93819;-73
2023/05/24 06:41:34;;;;;;;9.75;5.20;;;15.30;94.20;;;;;;6246779;22;92360;-75
2023/05/24 06:44:00;;;;;;;9.82;5.95;;;15.40;94.30;;;;;;6247484;22;92202;-74
2023/05/24 06:46:26;;;;;;;9.10;5.15;;;15.50;93.70;;;;;;6246292;22;93029;-74
2023/05/24 06:48:51;;;;;;;9.70;5.68;;;15.60;93.60;;;;;;6246964;22;92375;-73
2023/05/24 06:51:17;;;;;;;9.60;5.90;;;15.70;94.00;;;;;;6247267;22;91934;-73
2023/05/24 06:53:43;;;;;;;9.25;4.88;;;15.70;93.80;;;;;;6247755;22;91259;-73
2023/05/24 06:56:09;;;;;;;8.50;5.13;;;15.80;93.70;;;;;;6246710;22;93210;-74
2023/05/24 06:58:35;;;;;;;9.73;5.38;;;15.70;94.10;;;;;;6246410;22;93170;-74
2023/05/24 07:01:03;;;;;;;9.98;5.50;;;15.60;93.90;;;;;;6246659;22;94093;-73
2023/05/24 07:03:29;;;;;;;12.73;4.90;;;15.60;93.90;;;;;;6247250;22;92081;-74
2023/05/24 07:05:55;;;;;;;9.77;5.63;;;15.70;93.80;;;;;;6246820;22;93914;-74
2023/05/24 07:08:21;;;;;;;10.63;5.18;;;15.60;93.90;;;;;;6246632;22;92428;-73
2023/05/24 07:10:47;;;;;;;9.40;5.07;;;15.50;93.70;;;;;;6246826;22;92285;-73
2023/05/24 07:13:12;;;;;;;9.73;5.50;;;15.50;93.20;;;;;;6247057;22;92169;-74
2023/05/24 07:15:41;;;;;;;9.13;4.63;;;15.50;93.70;;;;;;6246328;22;93516;-73
2023/05/24 07:18:07;;;;;;;9.25;5.15;;;15.60;93.70;;;;;;6246454;22;92327;-73
2023/05/24 07:20:33;;;;;;;9.68;5.50;;;15.70;94.20;;;;;;6247002;22;92571;-74
2023/05/24 07:23:00;;;;;;;8.32;4.82;;;15.70;94.10;;;;;;6246719;22;92488;-73
2023/05/24 07:25:25;;;;;;;9.32;5.50;;;15.80;93.50;;;;;;6218357;22;94544;-74
2023/05/24 07:27:51;;;;;;;8.10;4.93;;;15.70;93.80;;;;;;6246235;22;94218;-73
2023/05/24 07:30:17;;;;;;;8.73;5.22;;;15.70;93.80;;;;;;6247105;22;92183;-73
2023/05/24 07:32:44;;;;;;;9.25;4.93;;;15.70;93.90;;;;;;6247634;22;92273;-73
2023/05/24 07:35:14;;;;;;;8.80;4.50;;;15.60;93.90;;;;;;6245528;22;94028;-74
2023/05/24 07:37:40;;;;;;;8.85;4.28;;;15.60;93.90;;;;;;6245861;22;92815;-74
2023/05/24 07:40:10;;;;;;;9.82;4.57;;;15.60;93.40;;;;;;6246903;22;92084;-73
2023/05/24 07:42:36;;;;;;;8.38;4.28;;;15.50;93.70;;;;;;6247395;22;91324;-73
2023/05/24 07:45:02;;;;;;;8.10;4.50;;;15.60;93.20;;;;;;6246289;22;93925;-74
2023/05/24 07:47:27;;;;;;;8.98;4.22;;;15.60;92.70;;;;;;6246002;22;92583;-73
2023/05/24 07:49:53;;;;;;;8.65;4.30;;;15.50;93.00;;;;;;6246145;22;93366;-73
2023/05/24 07:52:19;;;;;;;6.90;4.15;;;15.60;92.60;;;;;;6246850;22;92539;-73
2023/05/24 07:54:45;;;;;;;7.85;4.13;;;15.60;93.00;;;;;;6246209;22;93484;-73
2023/05/24 07:57:11;;;;;;;9.95;4.82;;;15.50;93.10;;;;;;6246570;22;93071;-74
2023/05/24 07:59:37;;;;;;;7.57;4.35;;;15.50;93.90;;;;;;6246576;22;92449;-74
2023/05/24 08:02:04;;;;;;;8.75;4.45;;;15.60;93.90;;;;;;6246445;22;92146;-73
2023/05/24 08:04:31;;;;;;;8.18;4.13;;;15.60;93.50;;;;;;6246480;22;93356;-73
2023/05/24 08:07:00;;;;;;;7.50;4.22;;;15.60;93.80;;;;;;6219703;22;93296;-74
2023/05/24 08:09:26;;;;;;;7.68;4.43;;;15.60;93.40;;;;;;6247067;22;92384;-73
2023/05/24 08:11:52;;;;;;;8.60;4.55;;;15.80;93.60;;;;;;6246916;22;92255;-74
2023/05/24 08:14:18;;;;;;;7.22;4.35;;;15.90;93.70;;;;;;6245203;22;95061;-74
2023/05/24 08:16:43;;;;;;;7.63;3.88;;;16.10;93.30;;;;;;6245076;22;94602;-74
2023/05/24 08:19:09;;;;;;;6.95;3.75;;;16.00;92.30;;;;;;6246717;22;92433;-73
2023/05/24 08:21:36;;;;;;;7.93;3.78;;;16.20;92.00;;;;;;6246706;22;92017;-74
2023/05/24 08:24:02;;;;;;;9.75;4.20;;;16.20;91.90;;;;;;6246030;22;92605;-74
2023/05/24 08:26:27;;;;;;;8.27;4.10;;;16.20;91.80;;;;;;6245822;22;93304;-75
2023/05/24 08:28:53;;;;;;;8.77;4.28;;;16.30;91.80;;;;;;6246445;22;92019;-76
2023/05/24 08:31:20;;;;;;;8.93;3.92;;;16.40;91.70;;;;;;6247380;22;91268;-73
2023/05/24 08:33:49;;;;;;;8.63;4.15;;;16.70;91.30;;;;;;6245998;22;93206;-74
2023/05/24 08:36:16;;;;;;;8.60;4.03;;;16.80;91.10;;;;;;6245677;22;93511;-75
2023/05/24 08:38:41;;;;;;;7.60;3.63;;;16.90;90.10;;;;;;6245607;22;93345;-74
2023/05/24 08:41:10;;;;;;;9.30;4.45;;;16.90;90.10;;;;;;6246770;22;92430;-74
2023/05/24 08:43:40;;;;;;;6.97;3.78;;;16.80;90.60;;;;;;6246268;22;93321;-73
2023/05/24 08:46:06;;;;;;;9.00;3.53;;;16.70;90.00;;;;;;6245693;22;92933;-73
2023/05/24 08:48:40;;;;;;;9.70;3.75;;;16.70;89.90;;;;;;6247620;22;92346;-74
2023/05/24 08:51:06;;;;;;;8.45;3.63;;;16.50;90.00;;;;;;6247542;22;92278;-73
2023/05/24 08:53:36;;;;;;;9.38;3.53;;;16.30;89.70;;;;;;6247231;22;93517;-73
2023/05/24 08:56:03;;;;;;;8.23;3.35;;;16.20;90.30;;;;;;6247081;22;91520;-74
2023/05/24 08:58:30;;;;;;;7.93;3.40;;;16.10;90.40;;;;;;6246976;22;92342;-74
2023/05/24 09:00:57;;;;;;;8.38;3.35;;;16.10;90.50;;;;;;6248126;22;91947;-74
2023/05/24 09:03:23;;;;;;;9.40;3.38;;;16.10;90.70;;;;;;6246563;22;93806;-73
2023/05/24 09:05:49;;;;;;;6.13;2.90;;;16.10;90.50;;;;;;6246839;22;92714;-72
2023/05/24 09:08:17;;;;;;;6.28;2.80;;;16.10;90.30;;;;;;6247800;22;92425;-73
2023/05/24 09:10:44;;;;;;;6.15;3.15;;;16.10;90.60;;;;;;6247464;22;92271;-74
2023/05/24 09:13:10;;;;;;;6.38;2.83;;;16.30;90.20;;;;;;6247182;22;93381;-74
2023/05/24 09:15:36;;;;;;;7.55;3.58;;;16.40;89.70;;;;;;6247285;22;92887;-74
2023/05/24 09:18:02;;;;;;;5.20;2.97;;;16.40;89.70;;;;;;6246183;22;92314;-73
2023/05/24 09:20:29;;;;;;;5.47;2.40;;;16.60;88.90;;;;;;6247580;22;91673;-74
2023/05/24 09:22:56;;;;;;;8.93;2.85;;;16.60;88.10;;;;;;6244623;22;92430;-74
2023/05/24 09:25:22;;;;;;;8.52;3.28;;;16.60;87.30;;;;;;6245118;22;92684;-74
2023/05/24 09:27:52;;;;;;;7.03;3.05;;;16.50;87.30;;;;;;6246026;22;93135;-73
2023/05/24 09:30:18;;;;;;;7.57;3.20;;;16.40;88.20;;;;;;6247349;22;91999;-74
2023/05/24 09:32:58;;;;;;;5.70;2.47;;;16.30;88.10;;;;;;6243796;22;93339;-74
2023/05/24 09:35:25;;;;;;;5.72;2.67;;;16.10;88.20;;;;;;6242671;22;92855;-75
2023/05/24 09:37:56;;;;;;;7.03;2.42;;;16.00;88.80;;;;;;6246586;22;92468;-74
2023/05/24 09:40:23;;;;;;;10.20;2.97;;;16.00;88.60;;;;;;6246992;22;92296;-75
2023/05/24 09:43:01;;;;;;;5.85;2.50;;;16.00;89.50;;;;;;6246113;22;93214;-74
2023/05/24 09:45:27;;;;;;;6.85;2.58;;;15.90;89.30;;;;;;6247272;22;93006;-73
2023/05/24 09:47:53;;;;;;;5.82;2.75;;;15.90;88.70;;;;;;6246942;22;92653;-75
2023/05/24 09:50:19;;;;;;;6.85;2.78;;;16.00;89.30;;;;;;6247828;22;92574;-74
2023/05/24 09:52:45;;;;;;;6.72;2.95;;;16.00;89.40;;;;;;6245797;22;94225;-74
2023/05/24 09:55:15;;;;;;;8.38;3.30;;;15.90;90.40;;;;;;6246113;22;93852;-74
2023/05/24 09:57:43;;;;;;;8.27;3.17;;;15.80;90.20;;;;;;6246296;22;92429;-74
2023/05/24 10:00:16;;;;;;;6.13;2.90;;;15.90;90.40;;;;;;6246494;22;92006;-74
2023/05/24 10:02:45;;;;;;;5.93;2.50;;;15.90;90.50;;;;;;6218828;22;93729;-73
2023/05/24 10:05:12;;;;;;;6.35;2.65;;;15.90;90.70;;;;;;6245872;22;93077;-73
2023/05/24 10:07:41;;;;;;;4.90;2.25;;;16.00;90.80;;;;;;6246621;22;92339;-74
2023/05/24 10:10:08;;;;;;;7.18;3.17;;;16.30;91.10;;;;;;6246442;22;91693;-74
2023/05/24 10:12:34;;;;;;;6.60;2.67;;;16.40;89.80;;;;;;6245907;22;93099;-74
2023/05/24 10:15:01;;;;;;;8.48;3.00;;;16.40;89.10;;;;;;6244851;22;92480;-75
2023/05/24 10:17:27;;;;;;;8.45;2.95;;;16.50;88.70;;;;;;6245160;22;93283;-73
2023/05/24 10:19:53;;;;;;;9.43;3.03;;;16.60;87.90;;;;;;6246950;22;92378;-74
2023/05/24 10:22:23;;;;;;;6.75;2.38;;;16.50;88.20;;;;;;6245939;22;93722;-74
2023/05/24 10:24:57;;;;;;;5.47;1.98;;;16.50;87.70;;;;;;6245323;22;92502;-74
2023/05/24 10:27:29;;;;;;;5.25;2.22;;;16.70;87.40;;;;;;6246186;22;92331;-74
2023/05/24 10:30:13;;;;;;;7.35;2.17;;;16.70;87.20;;;;;;6245831;22;92504;-74
2023/05/24 10:32:41;;;;;;;7.32;2.35;;;16.90;85.70;;;;;;6244094;22;93311;-74
2023/05/24 10:35:08;;;;;;;7.93;2.53;;;16.90;86.10;;;;;;6242801;22;93113;-75
2023/05/24 10:37:34;;;;;;;6.18;2.90;;;16.80;85.80;;;;;;6242436;22;92444;-73
2023/05/24 10:40:00;;;;;;;6.15;2.63;;;16.80;86.40;;;;;;6243116;22;92308;-73
2023/05/24 10:42:26;;;;;;;9.25;2.88;;;16.70;86.90;;;;;;6213080;22;94561;-75
2023/05/24 10:44:56;;;;;;;8.18;2.50;;;16.70;85.90;;;;;;6242092;22;93905;-74
2023/05/24 10:47:27;;;;;;;7.47;2.80;;;16.70;86.30;;;;;;6244209;22;92476;-74
2023/05/24 10:49:58;;;;;;;11.95;2.83;;;16.80;86.20;;;;;;6244721;22;92646;-74
2023/05/24 10:52:34;;;;;;;6.78;2.92;;;16.90;85.40;;;;;;6244170;22;93787;-73
2023/05/24 10:55:06;;;;;;;6.50;2.58;;;16.80;85.10;;;;;;6244256;22;92764;-75
2023/05/24 10:57:33;;;;;;;5.25;3.10;;;16.90;86.00;;;;;;6244459;22;92244;-74
2023/05/24 11:00:26;;;;;;;7.20;3.03;;;16.80;85.90;;;;;;6245837;22;91606;-74
2023/05/24 11:03:24;;;;;;;7.22;3.97;;;16.70;86.50;;;;;;6230068;22;93186;-74
2023/05/24 11:05:53;;;;;;;7.90;3.17;;;16.70;86.30;;;;;;6215048;22;92684;-74
2023/05/24 11:08:34;;;;;;;6.50;2.83;;;16.70;85.90;;;;;;6242565;22;93481;-74
2023/05/24 11:11:08;;;;;;;7.70;2.97;;;16.70;86.40;;;;;;6241370;22;92703;-76
2023/05/24 11:13:36;;;;;;;9.63;2.83;;;16.70;86.20;;;;;;6240914;22;93786;-74
2023/05/24 11:16:02;;;;;;;8.13;3.10;;;16.80;85.10;;;;;;6240977;22;92676;-74
2023/05/24 11:18:28;;;;;;;9.25;2.90;;;16.90;86.30;;;;;;6242836;22;92743;-73
2023/05/24 11:20:56;;;;;;;8.63;3.35;;;17.10;86.10;;;;;;6244233;22;92009;-74
2023/05/24 11:23:22;;;;;;;7.07;2.92;;;17.10;84.60;;;;;;6243109;22;93593;-74
2023/05/24 11:25:48;;;;;;;7.28;3.20;;;17.00;84.60;;;;;;6243277;22;92877;-75
2023/05/24 11:28:13;;;;;;;9.52;3.35;;;17.30;85.30;;;;;;6243479;22;92820;-73
2023/05/24 11:30:46;;;;;;;9.70;3.10;;;17.50;82.30;;;;;;6244075;22;92113;-74
2023/05/24 11:33:17;;;;;;;9.52;3.13;;;17.40;82.60;;;;;;6214544;22;94652;-74
2023/05/24 11:35:43;;;;;;;9.80;3.13;;;17.40;82.70;;;;;;6242244;22;93833;-74
2023/05/24 11:38:13;;;;;;;8.27;2.78;;;17.50;82.10;;;;;;6243533;22;92767;-75
2023/05/24 11:40:43;;;;;;;;;;;17.60;82.50;;;;;;6244476;22;92603;-73
2023/05/24 11:43:10;;;;;;;8.80;3.08;;;17.60;82.10;;;;;;6244832;22;92582;-74
2023/05/24 11:45:38;;;;;;;8.00;2.95;;;17.40;82.90;;;;;;6216593;22;94384;-74
2023/05/24 11:48:05;;;;;;;8.85;3.33;;;17.20;82.80;;;;;;6214676;22;92826;-74
2023/05/24 11:50:30;;;;;;;11.15;3.33;;;17.10;83.30;;;;;;6244439;22;91887;-75
2023/05/24 11:53:02;;;;;;;9.52;3.28;;;17.00;83.30;;;;;;6243413;22;93256;-74
2023/05/24 11:55:28;;;;;;;10.52;3.63;;;16.90;83.60;;;;;;6243418;22;92352;-72
2023/05/24 11:57:58;;;;;;;9.57;3.25;;;16.80;83.30;;;;;;6242991;22;93307;-72
2023/05/24 12:00:25;;;;;;;7.18;2.80;;;16.80;83.30;;;;;;6243689;22;92509;-72
2023/05/24 12:02:51;;;;;;;8.05;3.75;;;16.70;83.20;;;;;;6243312;22;93512;-72
2023/05/24 12:05:18;;;;;;;11.52;2.88;;;16.70;83.00;;;;;;6242626;22;92746;-74
2023/05/24 12:07:50;;;;;;;6.70;3.10;;;16.70;83.20;;;;;;6243439;22;92219;-74
2023/05/24 12:10:16;;;;;;;9.25;2.90;;;16.70;83.50;;;;;;6243681;22;91965;-75
2023/05/24 12:12:43;;;;;;;8.95;3.45;;;16.80;84.20;;;;;;6243322;22;92940;-75
2023/05/24 12:15:10;;;;;;;11.73;3.28;;;16.90;82.60;;;;;;6243649;22;93212;-72
2023/05/24 12:17:36;;;;;;;11.05;3.13;;;16.80;82.90;;;;;;6216060;22;92515;-76
2023/05/24 12:20:05;;;;;;;14.80;3.75;;;16.90;83.00;;;;;;6243876;22;92462;-75
2023/05/24 12:22:30;;;;;;;10.68;3.17;;;17.00;83.10;;;;;;6241739;22;93478;-74
2023/05/24 12:24:57;;;;;;;8.00;3.00;;;17.10;82.10;;;;;;6242988;22;93993;-71
2023/05/24 12:27:30;;;;;;;9.68;3.30;;;17.20;81.10;;;;;;6243072;22;92371;-72
2023/05/24 12:30:05;;;;;;;8.80;3.55;;;17.30;81.30;;;;;;6243385;22;92459;-73
2023/05/24 12:32:30;;;;;;;9.60;3.17;;;17.30;81.80;;;;;;6233086;22;93205;-74
2023/05/24 12:34:56;;;;;;;10.98;3.42;;;17.50;80.70;;;;;;6240069;22;92990;-74
2023/05/24 12:37:23;;;;;;;10.10;3.15;;;17.60;80.80;;;;;;6240098;22;92862;-72
2023/05/24 12:39:50;;;;;;;12.05;3.55;;;17.60;80.80;;;;;;6210594;22;91509;-72
2023/05/24 12:42:17;;;;;;;13.65;3.42;;;17.70;80.70;;;;;;6237079;22;92756;-76
2023/05/24 12:44:44;;;;;;;8.27;3.63;;;17.70;79.10;;;;;;6237998;22;92857;-72
2023/05/24 12:47:10;;;;;;;8.65;3.75;;;17.80;79.70;;;;;;6235143;22;93492;-71
2023/05/24 12:49:37;;;;;;;14.25;3.40;;;17.90;79.80;;;;;;6210858;22;92613;-71
2023/05/24 12:52:04;;;;;;;10.80;3.65;;;17.80;79.50;;;;;;6241099;22;92880;-71
2023/05/24 12:54:30;;;;;;;9.93;3.30;;;17.60;80.90;;;;;;6210933;22;95287;-72
2023/05/24 12:56:58;;;;;;;12.35;3.28;;;17.50;80.40;;;;;;6241216;22;93093;-72
2023/05/24 12:59:26;;;;;;;9.93;3.15;;;17.40;80.00;;;;;;6242853;22;92283;-71
2023/05/24 13:01:51;;;;;;;7.78;3.33;;;17.40;80.70;;;;;;6242298;22;93073;-72
2023/05/24 13:04:19;;;;;;;10.77;3.35;;;17.40;80.80;;;;;;6238457;22;92995;-73
2023/05/24 13:06:46;;;;;;;9.35;3.83;;;17.50;80.20;;;;;;6239633;22;92496;-73
2023/05/24 13:09:13;;;;;;;12.63;3.60;;;17.40;79.20;;;;;;6242220;22;92364;-71
2023/05/24 13:11:38;;;;;;;15.98;3.90;;;17.40;79.60;;;;;;6242364;22;94794;-71
2023/05/24 13:14:05;;;;;;;7.50;3.28;;;17.40;79.00;;;;;;6242992;22;93779;-76
2023/05/24 13:16:31;;;;;;;8.30;4.13;;;17.40;79.30;;;;;;6243558;22;92537;-72
2023/05/24 13:18:57;;;;;;;11.15;3.50;;;17.40;78.90;;;;;;6243675;22;92073;-72
2023/05/24 13:21:22;;;;;;;8.65;3.47;;;17.40;79.20;;;;;;6242263;22;92681;-74
2023/05/24 13:23:48;;;;;;;10.13;3.65;;;17.30;79.50;;;;;;6242598;22;92834;-72
2023/05/24 13:26:14;;;;;;;11.38;3.75;;;17.40;79.80;;;;;;6237855;22;92456;-74
2023/05/24 13:28:41;;;;;;;13.45;4.45;;;17.50;80.00;;;;;;6239461;22;92047;-72
2023/05/24 13:31:07;;;;;;;9.55;3.50;;;17.60;79.40;;;;;;6242062;22;92710;-75
2023/05/24 13:33:32;;;;;;;11.40;3.85;;;17.60;79.20;;;;;;6242105;22;92792;-71
2023/05/24 13:35:58;;;;;;;7.20;3.72;;;17.50;78.80;;;;;;6243321;22;93722;-73
2023/05/24 13:38:24;;;;;;;10.30;3.13;;;17.60;79.70;;;;;;6244298;22;92337;-72
2023/05/24 13:40:52;;;;;;;9.25;3.38;;;17.70;79.00;;;;;;6244442;22;92759;-73
2023/05/24 13:43:18;;;;;;;11.15;3.55;;;17.90;77.60;;;;;;6239678;22;92565;-73
2023/05/24 13:45:44;;;;;;;10.90;3.92;;;18.10;77.90;;;;;;6242760;22;92661;-75
2023/05/24 13:48:10;;;;;;;7.75;3.28;;;18.20;76.90;;;;;;6240830;22;92512;-76
2023/05/24 13:50:36;;;;;;;10.50;4.00;;;18.30;77.20;;;;;;6239669;22;93949;-72
2023/05/24 13:53:04;;;;;;;8.88;3.10;;;18.40;76.60;;;;;;6243133;22;93435;-72
2023/05/24 13:55:31;;;;;;;8.32;3.72;;;18.70;75.40;;;;;;6243062;22;92479;-75
2023/05/24 13:57:57;;;;;;;11.00;3.33;;;18.80;75.50;;;;;;6239106;22;92751;-73
2023/05/24 14:00:23;;;;;;;7.45;4.10;;;18.80;74.00;;;;;;6237743;22;93934;-73
2023/05/24 14:02:50;;;;;;;8.65;3.33;;;19.00;74.80;;;;;;6232221;22;94116;-73
2023/05/24 14:05:16;;;;;;;7.57;3.00;;;18.80;72.30;;;;;;6244151;22;92430;-73
2023/05/24 14:07:42;;;;;;;8.32;3.17;;;18.90;72.00;;;;;;6245238;22;92050;-72
2023/05/24 14:10:08;;;;;;;9.75;3.40;;;19.10;70.80;;;;;;6240015;22;92679;-73
2023/05/24 14:12:34;;;;;;;8.80;3.50;;;19.40;72.80;;;;;;6244133;22;92578;-72
2023/05/24 14:15:00;;;;;;;6.78;3.38;;;19.50;72.20;;;;;;6238455;22;92326;-75
2023/05/24 14:17:30;;;;;;;8.07;3.20;;;19.80;69.30;;;;;;6243398;22;93136;-72
2023/05/24 14:19:55;;;;;;;6.45;3.22;;;20.10;71.50;;;;;;6241579;22;92577;-73
2023/05/24 14:22:23;;;;;;;8.43;3.83;;;20.30;71.00;;;;;;6244126;22;92733;-71
2023/05/24 14:24:49;;;;;;;12.05;3.95;;;20.40;68.90;;;;;;6245155;22;93517;-71
2023/05/24 14:27:15;;;;;;;8.20;3.20;;;20.60;67.20;;;;;;6246151;22;92421;-72
2023/05/24 14:29:40;;;;;;;7.57;3.17;;;20.60;66.00;;;;;;6244756;22;93153;-72
2023/05/24 14:32:06;;;;;;;8.20;4.13;;;20.70;64.50;;;;;;6245344;22;92796;-72
2023/05/24 14:34:32;;;;;;;8.63;3.25;;;20.90;65.80;;;;;;6244935;22;92382;-71
2023/05/24 14:36:58;;;;;;;10.32;3.22;;;21.00;64.30;;;;;;6246361;22;92022;-72
2023/05/24 14:39:23;;;;;;;7.07;3.42;;;20.90;63.60;;;;;;6243702;22;92567;-72
2023/05/24 14:41:49;;;;;;;9.80;3.15;;;20.90;64.30;;;;;;6245541;22;92739;-72
2023/05/24 14:44:15;;;;;;;9.27;3.35;;;20.90;64.10;;;;;;6245534;22;92514;-72
2023/05/24 14:46:40;;;;;;;8.23;3.15;;;20.90;63.40;;;;;;6246102;22;92446;-72
2023/05/24 14:49:07;;;;;;;8.85;3.15;;;20.90;65.20;;;;;;6244690;22;94371;-70
2023/05/24 14:51:33;;;;;;;8.68;2.90;;;20.80;64.00;;;;;;6245609;22;92585;-71
2023/05/24 14:53:58;;;;;;;6.35;2.85;;;20.70;64.30;;;;;;6218741;22;92765;-71
2023/05/24 14:56:24;;;;;;;7.93;3.35;;;20.60;64.50;;;;;;6219440;22;92616;-71
2023/05/24 14:58:50;;;;;;;6.53;2.72;;;20.70;62.80;;;;;;6245758;22;93687;-72
2023/05/24 15:01:15;;;;;;;7.55;2.85;;;20.70;64.90;;;;;;6245713;22;93305;-71
2023/05/24 15:03:41;;;;;;;8.05;2.90;;;20.80;63.40;;;;;;6245864;22;92349;-73
2023/05/24 15:06:07;;;;;;;7.07;2.92;;;20.80;61.60;;;;;;6242063;22;91760;-71
2023/05/24 15:08:34;;;;;;;6.57;2.40;;;20.70;63.30;;;;;;6241671;22;93840;-70
2023/05/24 15:10:59;;;;;;;10.40;3.22;;;20.70;64.10;;;;;;6242596;22;92117;-70
2023/05/24 15:13:25;;;;;;;6.90;2.72;;;20.50;64.20;;;;;;6244075;22;93223;-70
2023/05/24 15:15:52;;;;;;;9.02;3.22;;;20.30;65.50;;;;;;6243549;22;92288;-72
2023/05/24 15:18:18;;;;;;;6.97;3.50;;;20.20;66.70;;;;;;6243631;22;92670;-71
2023/05/24 15:20:44;;;;;;;6.10;2.80;;;20.10;67.10;;;;;;6242489;22;93754;-73
2023/05/24 15:23:09;;;;;;;9.75;3.42;;;20.00;67.50;;;;;;6240605;22;92228;-75
2023/05/24 15:25:36;;;;;;;12.68;4.10;;;19.80;67.00;;;;;;6240564;22;92475;-73
2023/05/24 15:28:01;;;;;;;9.65;4.03;;;19.50;67.20;;;;;;6245461;22;93590;-74
2023/05/24 15:30:27;;;;;;;13.32;3.90;;;19.40;67.60;;;;;;6243166;22;92809;-71
2023/05/24 15:32:53;;;;;;;9.85;3.67;;;19.30;68.60;;;;;;6243978;22;92797;-72
2023/05/24 15:35:19;;;;;;;11.90;4.80;;;19.30;68.00;;;;;;6244387;22;92647;-73
2023/05/24 15:37:45;;;;;;;9.93;4.20;;;19.20;68.50;;;;;;6242432;22;94469;-72
2023/05/24 15:40:11;;;;;;;8.45;3.63;;;19.20;68.50;;;;;;6243867;22;93772;-72
2023/05/24 15:42:38;;;;;;;12.48;4.78;;;19.10;68.40;;;;;;6245045;22;92673;-74
2023/05/24 15:45:04;;;;;;;10.50;3.88;;;19.10;68.90;;;;;;6245639;22;92539;-74
2023/05/24 15:47:35;;;;;;;10.73;3.55;;;19.10;67.30;;;;;;6243145;22;92404;-71
2023/05/24 15:50:01;;;;;;;8.13;3.33;;;19.00;69.70;;;;;;6245564;22;92404;-73
2023/05/24 15:52:27;;;;;;;9.25;3.50;;;19.10;70.10;;;;;;6246145;22;92863;-71
2023/05/24 15:54:53;;;;;;;13.55;6.05;;;19.10;71.40;;;;;;6246984;22;91558;-72
2023/05/24 15:57:18;;;;;;;6.97;3.15;;;19.00;70.70;;;;;;6245767;22;92818;-71
2023/05/24 15:59:44;;;;;;;8.57;3.65;;;19.00;70.40;;;;;;6242404;22;92541;-73